Latest Weather Observations for Mount Isa

IDQ60801

Issued at 4:32 pm EST Friday 30 September 2016 (issued every 30 minutes, with the page automatically refreshed every 10 minutes)

About weather observations | Map of weather stations | Latest weather observations for QLD | Other Formats
Station Details ID: 029127 Name: MOUNT ISA AERO Lat: -20.68 Lon: 139.49 Height: 340.3 m
Data from the previous 72 hours. | See also: Recent months at Mount Isa
Date/Time
EST
Temp
°C
App
Temp
°C
Dew
Point
°C
Rel
Hum
%
Delta-T
°C
Wind Press
QNH
hPa
Press
MSL
hPa
Rain since
9am
mm
Dir  Spd
km/h
Gust
km/h
Spd
kts
Gust
kts
30/04:30pm 29.1 24.6 -3.2 12 14.7 SW 11 17 6 9 1010.8 1009.3 0.0
30/04:00pm 28.7 23.9 -2.4 13 14.4 SW 13 19 7 10 1011.1 1009.6 0.0
30/03:30pm 29.1 24.7 -2.1 13 14.5 SSW 11 20 6 11 1011.3 1009.8 0.0
30/03:00pm 29.1 24.4 -2.1 13 14.5 SSE 13 22 7 12 1011.6 1010.0 0.0
30/02:30pm 27.5 22.2 -3.3 13 13.8 S 15 26 8 14 1012.2 1010.6 0.0
30/02:00pm 26.8 22.2 -3.9 13 13.6 ESE 11 19 6 10 1012.8 1011.3 0.0
30/01:30pm 26.4 21.6 -2.3 15 13.0 SSE 13 19 7 10 1013.2 1011.7 0.0
30/01:00pm 25.7 22.0 -2.8 15 12.7 SE 7 19 4 10 1013.7 1012.2 0.0
30/12:30pm 24.7 20.5 -3.6 15 12.4 SE 9 15 5 8 1014.4 1012.9 0.0
30/12:00pm 24.2 19.3 -3.2 16 12.0 ESE 13 20 7 11 1014.7 1013.1 0.0
30/11:30am 23.6 18.6 -1.3 19 11.2 S 15 26 8 14 1015.1 1013.6 0.0
30/11:00am 23.3 20.0 -0.2 21 10.8 ESE 7 15 4 8 1015.5 1014.0 0.0
30/10:30am 21.9 17.4 -0.1 23 10.0 SE 13 22 7 12 1015.5 1014.0 0.0
30/10:00am 21.3 17.3 0.5 25 9.5 SE 11 19 6 10 1015.5 1014.0 0.0
30/09:30am 20.7 16.4 1.1 27 9.1 ESE 13 22 7 12 1015.5 1014.0 0.0
30/09:00am 19.1 14.6 -0.3 27 8.6 ESE 13 19 7 10 1015.5 1014.0 0.2
30/08:30am 18.3 13.5 0.4 30 8.0 SE 15 19 8 10 1015.5 1014.0 0.2
30/08:00am 16.4 13.5 2.8 40 6.3 SSE 7 11 4 6 1015.3 1013.8 0.2
30/07:30am 13.7 12.1 4.6 54 4.3 S 2 9 1 5 1014.9 1013.3 0.2
30/07:00am 9.0 8.0 5.7 80 1.5 CALM 0 0 0 0 1014.4 1012.9 0.2
30/06:30am 8.2 5.9 4.6 78 1.6 ESE 6 7 3 4 1014.0 1012.5 0.2
30/06:00am 8.9 6.1 2.9 66 2.6 SE 7 9 4 5 1013.6 1012.1 0.2
30/05:30am 12.1 9.2 4.8 61 3.4 S 9 11 5 6 1013.4 1011.9 0.2
30/05:00am 9.2 6.1 3.4 67 2.6 S 9 9 5 5 1013.1 1011.6 0.2
30/04:30am 12.2 8.9 4.4 59 3.6 SSE 11 13 6 7 1012.7 1011.2 0.2
30/04:00am 14.2 11.2 3.9 50 4.8 SSE 9 11 5 6 1012.7 1011.2 0.2
30/03:30am 11.6 8.5 5.7 67 2.8 SSE 11 13 6 7 1012.8 1011.3 0.2
30/03:00am 11.9 9.3 6.0 67 2.8 S 9 11 5 6 1013.0 1011.5 0.2
30/02:30am 13.3 10.6 5.5 59 3.7 SE 9 13 5 7 1013.0 1011.5 0.2
30/02:00am 14.6 11.1 3.4 47 5.2 SSE 11 13 6 7 1013.1 1011.6 0.2
30/01:30am 17.9 14.5 1.8 34 7.4 S 9 11 5 6 1013.2 1011.7 0.2
30/01:00am 18.2 15.2 2.1 34 7.4 S 7 9 4 5 1013.4 1011.9 0.2
30/12:30am 14.3 12.1 6.2 58 4.0 S 7 11 4 6 1013.5 1012.0 0.2
30/12:00am 17.5 14.4 3.8 40 6.5 SSW 9 13 5 7 1013.4 1011.9 0.2
 
Date/Time
EST
Temp
°C
App
Temp
°C
Dew
Point
°C
Rel
Hum
%
Delta-T
°C
Wind Press
QNH
hPa
Press
MSL
hPa
Rain since
9am
mm
Dir  Spd
km/h
Gust
km/h
Spd
kts
Gust
kts
29/11:30pm 18.4 - - - - SSW 13 15 7 8 1013.4 1012.0 0.2
29/11:00pm 17.5 13.5 4.8 43 6.2 SSW 15 17 8 9 1013.6 1012.1 0.2
29/10:30pm 19.1 15.0 4.1 37 7.3 SSW 15 17 8 9 1013.6 1012.1 0.2
29/10:00pm 20.1 16.3 3.8 34 7.9 SSW 13 15 7 8 1013.4 1011.9 0.2
29/09:30pm 20.7 16.2 4.3 34 8.1 SSW 17 20 9 11 1013.0 1011.5 0.2
29/09:00pm 21.2 16.8 4.7 34 8.2 SW 17 22 9 12 1012.4 1010.9 0.2
29/08:30pm 22.0 18.3 4.6 32 8.7 SSW 13 17 7 9 1011.8 1010.2 0.2
29/08:00pm 23.2 19.3 5.2 31 9.2 SSW 15 19 8 10 1011.3 1009.8 0.2
29/07:30pm 23.1 19.7 6.0 33 8.8 SSW 13 17 7 9 1010.7 1009.2 0.2
29/07:00pm 24.0 20.7 6.3 32 9.2 SW 13 19 7 10 1010.3 1008.8 0.2
29/06:30pm 24.9 21.2 6.1 30 9.8 SW 15 20 8 11 1009.9 1008.4 0.2
29/06:00pm 26.1 22.1 6.7 29 10.3 SW 17 19 9 10 1009.8 1008.3 0.2
29/05:30pm 26.7 22.3 6.7 28 10.7 SSW 19 26 10 14 1009.6 1008.0 0.2
29/05:00pm 27.2 22.8 6.6 27 11.0 SSW 19 28 10 15 1009.7 1008.1 0.2
29/04:30pm 27.4 23.7 7.8 29 10.7 SSW 17 26 9 14 1009.8 1008.3 0.2
29/04:00pm 27.4 23.4 8.3 30 10.5 SSW 19 26 10 14 1009.7 1008.1 0.2
29/03:30pm 27.4 24.0 9.3 32 10.1 SSW 17 26 9 14 1009.8 1008.3 0.2
29/03:00pm 26.7 22.8 10.8 37 9.1 S 22 32 12 17 1009.9 1008.4 0.2
29/02:30pm 26.4 22.8 13.2 44 7.8 S 24 33 13 18 1010.2 1008.7 0.2
29/02:00pm 27.7 25.2 14.0 43 8.3 SSW 20 32 11 17 1010.3 1008.8 0.2
29/01:30pm 27.5 25.3 14.8 45 7.8 SSW 20 33 11 18 1010.4 1008.9 0.2
29/01:00pm 27.0 24.7 14.7 47 7.5 SW 20 35 11 19 1010.7 1009.2 0.2
29/12:30pm 27.1 24.6 15.1 47 7.4 SSW 22 32 12 17 1011.2 1009.7 0.2
29/12:00pm 26.8 24.3 15.2 49 7.1 SSW 22 32 12 17 1011.7 1010.1 0.2
29/11:30am 27.0 24.2 15.4 49 7.2 SSW 24 33 13 18 1012.1 1010.5 0.0
29/11:00am 26.2 23.4 15.3 51 6.7 SW 24 33 13 18 1012.3 1010.7 0.0
29/10:30am 25.7 22.0 16.0 55 6.0 SSW 30 39 16 21 1012.4 1010.9 0.0
29/10:00am 24.2 20.4 16.7 63 4.7 SSW 32 39 17 21 1012.4 1010.9 0.0
29/09:52am 24.1 21.8 16.6 63 4.7 SW 24 39 13 21 1012.2 1010.6 0.0
29/09:30am 25.1 27.2 17.1 61 5.0 SSE 2 9 1 5 1012.3 1010.7 0.0
29/09:00am 24.5 26.6 17.2 63 4.6 SSE 2 7 1 4 1012.1 1010.5 -
29/08:30am 22.9 25.5 17.6 72 3.3 CALM 0 0 0 0 1011.7 1010.1 -
29/08:00am 22.1 25.4 19.1 83 1.9 CALM 0 0 0 0 1011.3 1009.8 -
29/07:30am 21.0 24.4 19.3 90 1.1 CALM 0 0 0 0 1010.9 1009.4 -
29/07:00am 20.4 22.9 19.1 92 0.8 ESE 4 7 2 4 1010.8 1009.3 -
29/06:30am 20.2 22.9 18.7 91 1.0 SSW 2 9 1 5 1010.6 1009.1 -
29/06:00am 20.1 23.2 18.6 91 1.0 CALM 0 2 0 1 1010.3 1008.8 -
29/05:30am 20.0 21.7 18.5 91 0.9 W 7 7 4 4 1010.4 1008.9 -
29/05:00am 20.1 23.2 18.6 91 1.0 CALM 0 7 0 4 1009.9 1008.4 -
29/04:30am 20.2 22.2 18.7 91 1.0 SE 6 9 3 5 1009.6 1008.0 -
29/04:00am 20.6 23.6 18.5 88 1.3 CALM 0 0 0 0 1009.9 1008.4 -
29/03:30am 20.5 21.2 18.8 90 1.1 N 13 13 7 7 1009.9 1008.4 -
29/03:00am 20.1 21.5 18.6 91 1.0 NNW 9 11 5 6 1009.7 1008.1 1.0
29/02:30am 20.0 22.6 18.3 90 1.1 ENE 2 6 1 3 1009.7 1008.1 -
29/02:00am 20.4 21.7 18.5 89 1.2 E 9 11 5 6 1009.9 1008.4 -
29/01:30am 20.5 22.1 18.3 87 1.4 SSE 7 11 4 6 1010.2 1008.7 -
29/01:00am 20.4 22.6 18.3 88 1.3 N 4 7 2 4 1010.4 1008.9 -
29/12:30am 20.4 20.7 18.0 86 1.5 NNE 13 19 7 10 1010.9 1009.4 -
29/12:00am 20.1 19.9 18.6 91 1.0 NNE 17 24 9 13 1011.1 1009.6 -
 
Date/Time
EST
Temp
°C
App
Temp
°C
Dew
Point
°C
Rel
Hum
%
Delta-T
°C
Wind Press
QNH
hPa
Press
MSL
hPa
Rain since
9am
mm
Dir  Spd
km/h
Gust
km/h
Spd
kts
Gust
kts
28/11:30pm 19.8 20.7 18.5 92 0.8 N 11 15 6 8 1011.4 1009.9 -
28/11:00pm 20.0 22.3 17.6 86 1.5 NE 2 7 1 4 1012.0 1010.4 -
28/10:30pm 20.2 21.2 16.8 81 2.1 SSW 7 15 4 8 1011.6 1010.0 -
28/10:00pm 22.1 20.0 15.2 65 4.2 S 20 28 11 15 1011.8 1010.2 -
28/09:30pm 24.0 21.8 14.4 55 5.8 S 19 28 10 15 1010.5 1009.0 -
28/09:00pm 24.1 23.9 14.8 56 5.6 SSW 9 11 5 6 1010.1 1008.6 0.0
28/08:30pm 23.8 23.3 15.0 57 5.3 SSE 11 13 6 7 1009.7 1008.1 -
28/08:00pm 23.6 24.1 15.1 59 5.2 SSE 6 9 3 5 1009.6 1008.0 -
28/07:30pm 23.6 23.1 14.9 58 5.3 S 11 13 6 7 1009.6 1008.0 -
28/07:00pm 23.8 23.0 15.0 57 5.3 SSE 13 17 7 9 1009.5 1007.9 -
28/06:30pm 24.0 22.4 15.0 57 5.5 S 17 20 9 11 1009.7 1008.1 -
28/06:00pm 24.4 22.8 15.9 59 5.2 SSW 19 28 10 15 1010.3 1008.8 -
28/05:30pm 23.8 22.2 16.6 64 4.5 SSW 20 28 11 15 1009.8 1008.3 -
28/05:00pm 26.3 21.8 13.8 46 7.5 SSW 30 41 16 22 1009.5 1007.9 -
28/04:30pm 29.6 25.8 11.2 32 10.7 WSW 22 39 12 21 1009.0 1007.4 -
28/04:00pm 30.5 29.6 11.5 31 11.2 S 7 9 4 5 1008.2 1006.7 -
28/03:30pm 31.1 31.3 10.4 28 12.0 CALM 0 0 0 0 1008.2 1006.7 -
28/03:00pm 31.6 30.1 9.2 25 12.8 NNE 7 11 4 6 1008.3 1006.8 -
28/02:30pm 31.9 29.5 8.8 24 13.1 NE 11 17 6 9 1008.6 1007.0 -
28/02:00pm 32.2 29.5 9.1 24 13.2 NE 13 20 7 11 1009.0 1007.4 -
28/01:00pm 33.2 28.5 9.3 23 13.8 NE 24 32 13 17 1009.9 1008.4 -
28/12:30pm 32.1 27.7 9.0 24 13.2 NE 22 32 12 17 1010.6 1009.1 -
28/12:00pm 31.3 27.3 8.9 25 12.7 NE 20 30 11 16 1011.4 1009.9 -
28/11:30am 29.2 26.1 8.8 28 11.4 NNE 15 24 8 13 1012.0 - 0.0
28/11:00am 28.8 25.2 8.5 28 11.3 NE 17 22 9 12 1012.1 - 0.0
28/10:30am 27.5 24.0 8.9 31 10.4 NE 17 22 9 12 1012.5 - 0.0
28/10:00am 27.3 24.2 8.7 31 10.3 NE 15 20 8 11 1012.9 - 0.0
28/09:30am 26.4 22.9 8.8 33 9.7 NE 17 20 9 11 1013.2 - 0.0
28/09:00am 25.5 22.2 9.7 37 8.8 NE 17 22 9 12 1013.2 1011.8 0.0
28/08:30am 23.5 21.1 10.2 43 7.4 NE 13 19 7 10 1013.0 - 0.0
28/08:00am 22.0 20.7 11.1 50 6.1 NNE 9 13 5 7 1012.9 - 0.0
28/07:30am 20.8 19.9 12.5 59 4.8 NNE 9 11 5 6 1012.9 - 0.0
28/07:00am 19.6 18.6 12.4 63 4.1 ENE 9 11 5 6 1012.7 - 0.0
28/06:30am 19.2 17.8 11.0 59 4.5 NE 9 11 5 6 1012.4 - 0.0
28/06:00am 19.4 17.2 10.7 57 4.8 NE 13 15 7 8 1012.2 1010.8 0.0
28/05:30am 20.2 18.5 11.1 56 5.1 NE 11 13 6 7 1011.8 - 0.0
28/05:00am 20.9 18.8 11.0 53 5.5 NE 13 17 7 9 1011.6 - 0.0
28/04:30am 21.1 19.8 11.4 54 5.5 NE 9 11 5 6 1011.6 - 0.0
28/04:00am 22.0 20.4 11.7 52 5.9 NE 11 15 6 8 1011.5 - 0.0
28/03:30am 21.9 20.8 11.9 53 5.7 ENE 9 13 5 7 1011.7 - 0.0
28/03:00am 22.3 21.1 11.7 51 6.0 ENE 9 11 5 6 1011.8 1010.4 0.0
28/02:30am 22.5 20.9 11.6 50 6.2 NNE 11 13 6 7 1011.9 - 0.0
28/02:00am 22.2 20.7 11.9 52 5.9 NE 11 13 6 7 1012.2 - 0.0
28/01:30am 22.6 21.0 11.4 49 6.4 N 11 15 6 8 1012.8 - 0.0
28/01:00am 22.0 20.9 12.0 53 5.7 N 9 13 5 7 1012.8 - 0.0
28/12:30am 22.4 21.3 12.1 52 5.9 E 9 9 5 5 1013.6 - 0.0
28/12:00am 22.7 21.8 11.4 49 6.4 NE 7 9 4 5 1014.3 1012.9 0.0
 
Date/Time
EST
Temp
°C
App
Temp
°C
Dew
Point
°C
Rel
Hum
%
Delta-T
°C
Wind Press
QNH
hPa
Press
MSL
hPa
Rain since
9am
mm
Dir  Spd
km/h
Gust
km/h
Spd
kts
Gust
kts
27/11:30pm 23.1 21.7 10.9 46 6.9 ENE 9 15 5 8 1014.5 - 0.0
27/11:00pm 23.2 21.3 10.6 45 7.1 ENE 11 17 6 9 1014.9 - 0.0
27/10:30pm 23.4 20.8 10.8 45 7.1 E 15 20 8 11 1015.5 - 0.0
27/10:00pm 23.7 21.1 10.7 44 7.3 ESE 15 22 8 12 1015.7 - 0.0
27/09:30pm 23.5 21.5 11.5 47 6.8 ESE 13 24 7 13 1016.1 - 0.0
27/09:00pm 23.7 20.6 11.7 47 6.9 SE 19 26 10 14 1015.9 1014.5 0.0
27/08:30pm 23.8 20.8 11.8 47 6.9 SSE 19 30 10 16 1016.0 - 0.0
27/08:00pm 24.0 21.3 11.7 46 7.1 SSE 17 28 9 15 1015.8 - 0.0
27/07:30pm 24.1 21.1 11.8 46 7.1 SSE 19 28 10 15 1015.3 - 0.0
27/07:00pm 24.2 20.2 11.9 46 7.1 SSE 24 35 13 19 1015.0 - 0.0
27/06:30pm 24.1 20.2 12.1 47 6.9 SSE 24 35 13 19 1015.0 - 0.0
27/06:00pm 25.1 21.2 12.0 44 7.6 SSE 24 35 13 19 1014.8 1013.4 0.0
27/05:30pm 25.3 19.7 11.5 42 7.9 SSE 32 41 17 22 1014.5 - 0.0
27/05:00pm 25.8 20.1 11.2 40 8.4 SSE 32 43 17 23 1014.5 - 0.0

Other Formats:

Comma delimited format used in spreadsheet applications
http://www.bom.gov.au/fwo/IDQ60801/IDQ60801.94332.axf

JavaScript Object Notation format (JSON) in row-major order
http://www.bom.gov.au/fwo/IDQ60801/IDQ60801.94332.json